KPEZ

Details ICAO KPEZ
Name PLEASANTON MUNI
Region United States
Timezone America/Chicago (UTC-6.0)
Plans Departing 1
Arriving 2
Stats Elevation 430 ft / 131 m (AMSL)
Location 28.954190° -98.519985°
Runways 1
Magnetic Variation 4.274° E
Sunrise 2017-12-11 13:19:05 UTC / 2017-12-11 07:19:05 Local
Sunset 2017-12-11 23:38:44 UTC / 2017-12-11 17:38:44 Local
Advertisement - Login to hide

Runways

ID Width Length Bearing (true) Bearing (mag) Surface Threshold Offset Overrun Length
16 75 ft / 23 m 4,012 ft / 1,223 m 163.18° 158.91° Asphalt 403 ft / 123 m 0 ft / 0 m
34 75 ft / 23 m 4,012 ft / 1,223 m 343.18° 338.91° Asphalt 0 ft / 0 m 0 ft / 0 m

Map

Weather


0- 5 10 15 20 25 30 35+ Temperature / ° C

Clouds and Precipitation
Forecast for 2017-12-11 18:00 UTC. Updated 22 minutes ago

Ground ~20,000 ft ~40,000 ft Winds

METAR

KPEZ 111535Z AUTO 00000KT 10SM CLR 12/04 A3037 RMK AO2 T01200035

TAF

Not found

Frequencies

Unicom 122.70 MHz CTAF/UNICOM
Approach 118.05 MHz SAN ANTONIO APP
Clearance 126.55 MHz CLNC DEL
Departure 125.70 MHz SAN ANTONIO DEP
Warning: Do not use this data for real-world aviation or navigation. No guarantee of current accuracy is given.